sensor_id;sensor_type;location;lat;lon;timestamp;noise_LAeq;noise_LA_min;noise_LA_max;noise_LA01;noise_LA95
74260;Laerm;62630;55.874;37.516;2022-09-21T00:00:38;52.72;45.94;64.10;;
74260;Laerm;62630;55.874;37.516;2022-09-21T00:03:05;54.59;46.24;68.35;;
74260;Laerm;62630;55.874;37.516;2022-09-21T00:05:31;54.06;46.00;69.31;;
74260;Laerm;62630;55.874;37.516;2022-09-21T00:08:01;52.17;45.88;60.75;;
74260;Laerm;62630;55.874;37.516;2022-09-21T00:10:27;56.14;45.42;70.71;;
74260;Laerm;62630;55.874;37.516;2022-09-21T00:12:52;54.29;45.80;68.98;;
74260;Laerm;62630;55.874;37.516;2022-09-21T00:15:18;51.37;46.19;59.23;;
74260;Laerm;62630;55.874;37.516;2022-09-21T00:17:45;54.70;46.17;68.97;;
74260;Laerm;62630;55.874;37.516;2022-09-21T00:20:12;54.49;45.99;69.63;;
74260;Laerm;62630;55.874;37.516;2022-09-21T00:22:37;53.80;46.40;70.80;;
74260;Laerm;62630;55.874;37.516;2022-09-21T00:25:03;51.65;47.16;59.47;;
74260;Laerm;62630;55.874;37.516;2022-09-21T00:27:30;52.48;47.33;62.69;;
74260;Laerm;62630;55.874;37.516;2022-09-21T00:29:57;50.69;46.63;54.62;;
74260;Laerm;62630;55.874;37.516;2022-09-21T00:32:22;55.28;47.22;69.86;;
74260;Laerm;62630;55.874;37.516;2022-09-21T00:34:52;58.84;47.49;74.81;;
74260;Laerm;62630;55.874;37.516;2022-09-21T00:37:20;54.36;47.84;67.65;;
74260;Laerm;62630;55.874;37.516;2022-09-21T00:39:46;60.40;47.29;76.27;;
74260;Laerm;62630;55.874;37.516;2022-09-21T00:42:20;56.20;47.87;69.55;;
74260;Laerm;62630;55.874;37.516;2022-09-21T00:44:46;56.61;47.16;70.74;;
74260;Laerm;62630;55.874;37.516;2022-09-21T00:47:16;49.65;45.86;53.87;;
74260;Laerm;62630;55.874;37.516;2022-09-21T00:49:46;54.57;46.92;70.21;;
74260;Laerm;62630;55.874;37.516;2022-09-21T00:52:15;56.62;47.24;71.74;;
74260;Laerm;62630;55.874;37.516;2022-09-21T00:55:05;53.18;45.72;66.23;;
74260;Laerm;62630;55.874;37.516;2022-09-21T00:57:33;54.71;47.14;69.59;;
74260;Laerm;62630;55.874;37.516;2022-09-21T01:00:00;50.14;46.58;55.21;;
74260;Laerm;62630;55.874;37.516;2022-09-21T01:02:27;50.96;46.34;57.40;;
74260;Laerm;62630;55.874;37.516;2022-09-21T01:04:54;53.68;46.04;63.58;;
74260;Laerm;62630;55.874;37.516;2022-09-21T01:07:24;57.91;47.08;69.30;;
74260;Laerm;62630;55.874;37.516;2022-09-21T01:09:54;54.00;47.07;67.24;;
74260;Laerm;62630;55.874;37.516;2022-09-21T01:12:42;55.73;46.10;71.28;;
74260;Laerm;62630;55.874;37.516;2022-09-21T01:15:34;61.12;46.60;71.74;;
74260;Laerm;62630;55.874;37.516;2022-09-21T01:18:27;51.90;45.50;67.00;;
74260;Laerm;62630;55.874;37.516;2022-09-21T01:24:00;64.64;46.90;75.31;;
74260;Laerm;62630;55.874;37.516;2022-09-21T01:29:37;54.77;45.66;70.10;;
74260;Laerm;62630;55.874;37.516;2022-09-21T01:35:08;60.66;49.77;73.44;;
74260;Laerm;62630;55.874;37.516;2022-09-21T01:37:40;55.73;47.98;68.63;;
74260;Laerm;62630;55.874;37.516;2022-09-21T01:40:11;57.35;46.71;70.83;;
74260;Laerm;62630;55.874;37.516;2022-09-21T01:42:39;57.58;47.63;72.24;;
74260;Laerm;62630;55.874;37.516;2022-09-21T01:45:07;57.81;48.39;70.93;;
74260;Laerm;62630;55.874;37.516;2022-09-21T01:50:10;50.43;46.54;57.67;;
74260;Laerm;62630;55.874;37.516;2022-09-21T01:52:53;50.20;45.96;56.92;;
74260;Laerm;62630;55.874;37.516;2022-09-21T01:55:33;58.31;48.08;69.06;;
74260;Laerm;62630;55.874;37.516;2022-09-21T02:00:38;56.48;46.60;73.71;;
74260;Laerm;62630;55.874;37.516;2022-09-21T02:03:09;59.01;48.45;70.33;;
74260;Laerm;62630;55.874;37.516;2022-09-21T02:05:37;60.38;50.37;73.13;;
74260;Laerm;62630;55.874;37.516;2022-09-21T02:08:04;54.51;48.81;64.32;;
74260;Laerm;62630;55.874;37.516;2022-09-21T02:10:41;65.21;48.34;78.65;;
74260;Laerm;62630;55.874;37.516;2022-09-21T02:13:09;58.12;46.73;71.74;;
74260;Laerm;62630;55.874;37.516;2022-09-21T02:21:32;54.04;46.26;67.80;;
74260;Laerm;62630;55.874;37.516;2022-09-21T02:27:06;59.03;47.22;72.99;;
74260;Laerm;62630;55.874;37.516;2022-09-21T02:30:06;61.89;47.46;73.50;;
74260;Laerm;62630;55.874;37.516;2022-09-21T02:32:45;60.07;46.72;72.60;;
74260;Laerm;62630;55.874;37.516;2022-09-21T02:35:29;56.66;47.04;70.76;;
74260;Laerm;62630;55.874;37.516;2022-09-21T02:38:04;56.16;46.80;68.22;;
74260;Laerm;62630;55.874;37.516;2022-09-21T02:43:04;62.61;49.04;75.33;;
74260;Laerm;62630;55.874;37.516;2022-09-21T02:45:37;59.23;48.09;70.30;;
74260;Laerm;62630;55.874;37.516;2022-09-21T02:48:23;62.06;48.62;75.78;;
74260;Laerm;62630;55.874;37.516;2022-09-21T02:50:53;64.17;48.13;79.39;;
74260;Laerm;62630;55.874;37.516;2022-09-21T02:53:27;60.40;47.91;75.42;;
74260;Laerm;62630;55.874;37.516;2022-09-21T02:55:55;60.32;47.83;76.44;;
74260;Laerm;62630;55.874;37.516;2022-09-21T03:00:58;61.46;48.76;70.61;;
74260;Laerm;62630;55.874;37.516;2022-09-21T03:03:40;59.86;49.12;73.51;;
74260;Laerm;62630;55.874;37.516;2022-09-21T03:06:06;63.02;50.25;73.59;;
74260;Laerm;62630;55.874;37.516;2022-09-21T03:08:31;60.60;49.50;71.45;;
74260;Laerm;62630;55.874;37.516;2022-09-21T03:10:57;58.39;49.40;67.68;;
74260;Laerm;62630;55.874;37.516;2022-09-21T03:13:23;61.56;49.87;70.81;;
74260;Laerm;62630;55.874;37.516;2022-09-21T03:15:49;55.29;48.33;66.87;;
74260;Laerm;62630;55.874;37.516;2022-09-21T03:18:15;60.94;49.43;74.99;;
74260;Laerm;62630;55.874;37.516;2022-09-21T03:20:43;63.25;52.42;71.86;;
74260;Laerm;62630;55.874;37.516;2022-09-21T03:23:13;64.59;50.18;87.20;;
74260;Laerm;62630;55.874;37.516;2022-09-21T03:25:39;59.94;50.96;68.87;;
74260;Laerm;62630;55.874;37.516;2022-09-21T03:28:04;60.58;50.43;71.48;;
74260;Laerm;62630;55.874;37.516;2022-09-21T03:30:30;57.21;50.99;69.17;;
74260;Laerm;62630;55.874;37.516;2022-09-21T03:32:56;62.27;48.76;73.47;;
74260;Laerm;62630;55.874;37.516;2022-09-21T03:35:23;61.66;51.82;73.70;;
74260;Laerm;62630;55.874;37.516;2022-09-21T03:37:51;62.84;51.98;75.52;;
74260;Laerm;62630;55.874;37.516;2022-09-21T03:40:19;59.96;50.68;71.40;;
74260;Laerm;62630;55.874;37.516;2022-09-21T03:42:44;62.19;49.92;73.50;;
74260;Laerm;62630;55.874;37.516;2022-09-21T03:45:11;63.23;52.19;73.77;;
74260;Laerm;62630;55.874;37.516;2022-09-21T03:47:37;63.94;53.11;74.34;;
74260;Laerm;62630;55.874;37.516;2022-09-21T03:50:05;63.54;51.25;78.72;;
74260;Laerm;62630;55.874;37.516;2022-09-21T03:52:31;58.55;49.95;69.31;;
74260;Laerm;62630;55.874;37.516;2022-09-21T03:55:08;61.42;53.43;72.17;;
74260;Laerm;62630;55.874;37.516;2022-09-21T03:57:35;62.45;50.42;72.12;;
74260;Laerm;62630;55.874;37.516;2022-09-21T04:00:03;63.63;53.32;72.96;;
74260;Laerm;62630;55.874;37.516;2022-09-21T04:02:29;63.56;51.74;89.59;;
74260;Laerm;62630;55.874;37.516;2022-09-21T04:04:55;65.02;56.09;77.33;;
74260;Laerm;62630;55.874;37.516;2022-09-21T04:07:20;62.29;51.41;70.41;;
74260;Laerm;62630;55.874;37.516;2022-09-21T04:09:46;64.69;53.77;73.07;;
74260;Laerm;62630;55.874;37.516;2022-09-21T04:12:11;64.68;52.73;72.14;;
74260;Laerm;62630;55.874;37.516;2022-09-21T04:14:37;64.39;53.70;73.76;;
74260;Laerm;62630;55.874;37.516;2022-09-21T04:17:02;63.07;51.65;73.18;;
74260;Laerm;62630;55.874;37.516;2022-09-21T04:19:28;73.11;51.86;90.22;;
74260;Laerm;62630;55.874;37.516;2022-09-21T04:21:53;62.51;54.10;70.19;;
74260;Laerm;62630;55.874;37.516;2022-09-21T04:24:20;66.12;51.86;76.76;;
74260;Laerm;62630;55.874;37.516;2022-09-21T04:26:49;64.60;51.98;78.01;;
74260;Laerm;62630;55.874;37.516;2022-09-21T04:29:15;63.94;54.36;75.05;;
74260;Laerm;62630;55.874;37.516;2022-09-21T04:31:41;64.51;52.41;75.04;;
74260;Laerm;62630;55.874;37.516;2022-09-21T04:34:08;64.06;52.89;74.59;;
74260;Laerm;62630;55.874;37.516;2022-09-21T04:36:36;64.40;55.87;72.84;;
74260;Laerm;62630;55.874;37.516;2022-09-21T04:39:03;63.85;53.78;76.79;;
74260;Laerm;62630;55.874;37.516;2022-09-21T04:41:28;64.12;52.47;71.91;;
74260;Laerm;62630;55.874;37.516;2022-09-21T04:43:54;64.18;53.28;71.93;;
74260;Laerm;62630;55.874;37.516;2022-09-21T04:46:28;64.33;53.75;72.20;;
74260;Laerm;62630;55.874;37.516;2022-09-21T04:48:54;65.16;55.45;75.39;;
74260;Laerm;62630;55.874;37.516;2022-09-21T04:51:21;66.32;57.49;76.14;;
74260;Laerm;62630;55.874;37.516;2022-09-21T04:53:59;65.20;55.73;71.74;;
74260;Laerm;62630;55.874;37.516;2022-09-21T04:56:24;64.10;52.36;73.12;;
74260;Laerm;62630;55.874;37.516;2022-09-21T04:58:56;64.73;54.58;71.71;;
74260;Laerm;62630;55.874;37.516;2022-09-21T05:01:21;65.38;57.66;72.18;;
74260;Laerm;62630;55.874;37.516;2022-09-21T05:03:47;66.37;56.42;75.83;;
74260;Laerm;62630;55.874;37.516;2022-09-21T05:06:12;65.63;57.80;74.05;;
74260;Laerm;62630;55.874;37.516;2022-09-21T05:08:45;64.20;57.66;71.66;;
74260;Laerm;62630;55.874;37.516;2022-09-21T05:11:43;65.33;56.28;72.43;;
74260;Laerm;62630;55.874;37.516;2022-09-21T05:14:35;69.02;55.62;81.47;;
74260;Laerm;62630;55.874;37.516;2022-09-21T05:17:00;66.51;58.76;84.98;;
74260;Laerm;62630;55.874;37.516;2022-09-21T05:19:26;64.71;53.81;73.02;;
74260;Laerm;62630;55.874;37.516;2022-09-21T05:21:51;66.65;57.58;82.94;;
74260;Laerm;62630;55.874;37.516;2022-09-21T05:24:28;64.37;54.31;74.07;;
74260;Laerm;62630;55.874;37.516;2022-09-21T05:26:56;66.40;55.65;77.66;;
74260;Laerm;62630;55.874;37.516;2022-09-21T05:29:22;65.43;56.23;75.09;;
74260;Laerm;62630;55.874;37.516;2022-09-21T05:34:39;65.12;57.63;85.15;;
74260;Laerm;62630;55.874;37.516;2022-09-21T05:40:06;63.49;53.68;73.32;;
74260;Laerm;62630;55.874;37.516;2022-09-21T05:42:37;65.39;55.26;78.95;;
74260;Laerm;62630;55.874;37.516;2022-09-21T05:45:04;64.63;55.16;72.96;;
74260;Laerm;62630;55.874;37.516;2022-09-21T05:47:37;64.90;57.28;83.39;;
74260;Laerm;62630;55.874;37.516;2022-09-21T05:50:38;65.52;55.40;74.43;;
74260;Laerm;62630;55.874;37.516;2022-09-21T05:53:31;63.83;54.47;70.89;;
74260;Laerm;62630;55.874;37.516;2022-09-21T05:56:02;66.93;55.44;81.15;;
74260;Laerm;62630;55.874;37.516;2022-09-21T06:04:31;64.16;53.80;71.64;;
74260;Laerm;62630;55.874;37.516;2022-09-21T06:06:57;67.12;57.55;77.29;;
74260;Laerm;62630;55.874;37.516;2022-09-21T06:09:22;65.54;55.63;86.70;;
74260;Laerm;62630;55.874;37.516;2022-09-21T06:11:50;63.93;52.67;72.68;;
74260;Laerm;62630;55.874;37.516;2022-09-21T06:14:16;64.25;54.89;82.76;;
74260;Laerm;62630;55.874;37.516;2022-09-21T06:16:49;65.18;53.93;75.01;;
74260;Laerm;62630;55.874;37.516;2022-09-21T06:19:15;64.28;52.36;74.85;;
74260;Laerm;62630;55.874;37.516;2022-09-21T06:21:41;65.41;53.94;82.26;;
74260;Laerm;62630;55.874;37.516;2022-09-21T06:24:06;63.31;51.03;72.11;;
74260;Laerm;62630;55.874;37.516;2022-09-21T06:26:33;63.67;54.38;79.85;;
74260;Laerm;62630;55.874;37.516;2022-09-21T06:28:59;69.12;56.34;89.96;;
74260;Laerm;62630;55.874;37.516;2022-09-21T06:31:26;65.11;54.09;74.14;;
74260;Laerm;62630;55.874;37.516;2022-09-21T06:33:52;64.54;52.08;72.25;;
74260;Laerm;62630;55.874;37.516;2022-09-21T06:36:17;64.31;53.94;74.15;;
74260;Laerm;62630;55.874;37.516;2022-09-21T06:38:43;63.34;54.75;70.37;;
74260;Laerm;62630;55.874;37.516;2022-09-21T06:41:09;64.14;50.61;71.92;;
74260;Laerm;62630;55.874;37.516;2022-09-21T06:43:34;63.09;51.50;70.55;;
74260;Laerm;62630;55.874;37.516;2022-09-21T06:46:01;63.85;49.82;77.59;;
74260;Laerm;62630;55.874;37.516;2022-09-21T06:48:31;67.61;50.56;92.08;;
74260;Laerm;62630;55.874;37.516;2022-09-21T06:51:01;63.49;51.97;71.16;;
74260;Laerm;62630;55.874;37.516;2022-09-21T06:53:30;64.35;52.47;72.29;;
74260;Laerm;62630;55.874;37.516;2022-09-21T06:56:04;64.52;53.84;75.71;;
74260;Laerm;62630;55.874;37.516;2022-09-21T06:58:30;64.65;50.64;72.79;;
74260;Laerm;62630;55.874;37.516;2022-09-21T07:01:06;61.83;48.22;72.77;;
74260;Laerm;62630;55.874;37.516;2022-09-21T07:03:31;65.31;53.86;74.86;;
74260;Laerm;62630;55.874;37.516;2022-09-21T07:05:57;65.10;54.10;76.84;;
74260;Laerm;62630;55.874;37.516;2022-09-21T07:08:22;62.78;50.00;73.29;;
74260;Laerm;62630;55.874;37.516;2022-09-21T07:10:48;68.02;54.03;81.50;;
74260;Laerm;62630;55.874;37.516;2022-09-21T07:13:14;61.02;49.94;70.74;;
74260;Laerm;62630;55.874;37.516;2022-09-21T07:15:42;65.40;52.25;90.97;;
74260;Laerm;62630;55.874;37.516;2022-09-21T07:18:12;63.30;51.62;71.84;;
74260;Laerm;62630;55.874;37.516;2022-09-21T07:20:38;63.46;50.31;74.91;;
74260;Laerm;62630;55.874;37.516;2022-09-21T07:23:13;63.89;52.14;72.17;;
74260;Laerm;62630;55.874;37.516;2022-09-21T07:25:40;68.01;55.88;80.25;;
74260;Laerm;62630;55.874;37.516;2022-09-21T07:28:06;63.52;54.68;72.78;;
74260;Laerm;62630;55.874;37.516;2022-09-21T07:30:32;62.97;55.36;70.33;;
74260;Laerm;62630;55.874;37.516;2022-09-21T07:32:58;64.08;50.99;75.58;;
74260;Laerm;62630;55.874;37.516;2022-09-21T07:35:24;62.60;52.80;71.01;;
74260;Laerm;62630;55.874;37.516;2022-09-21T07:37:49;62.58;53.37;71.09;;
74260;Laerm;62630;55.874;37.516;2022-09-21T07:40:15;63.87;53.08;74.52;;
74260;Laerm;62630;55.874;37.516;2022-09-21T07:42:41;62.65;51.80;77.12;;
74260;Laerm;62630;55.874;37.516;2022-09-21T07:45:09;67.98;54.33;83.54;;
74260;Laerm;62630;55.874;37.516;2022-09-21T07:47:35;62.89;51.88;70.55;;
74260;Laerm;62630;55.874;37.516;2022-09-21T07:50:00;65.15;54.64;73.88;;
74260;Laerm;62630;55.874;37.516;2022-09-21T07:52:27;64.32;53.44;77.87;;
74260;Laerm;62630;55.874;37.516;2022-09-21T07:54:52;63.37;53.86;72.23;;
74260;Laerm;62630;55.874;37.516;2022-09-21T07:57:17;63.19;51.98;71.78;;
74260;Laerm;62630;55.874;37.516;2022-09-21T08:00:03;62.07;52.02;70.82;;
74260;Laerm;62630;55.874;37.516;2022-09-21T08:02:28;65.08;49.84;86.40;;
74260;Laerm;62630;55.874;37.516;2022-09-21T08:04:54;63.96;53.40;77.53;;
74260;Laerm;62630;55.874;37.516;2022-09-21T08:07:19;65.14;52.33;86.47;;
74260;Laerm;62630;55.874;37.516;2022-09-21T08:09:45;61.31;52.00;69.77;;
74260;Laerm;62630;55.874;37.516;2022-09-21T08:12:14;64.90;53.65;75.19;;
74260;Laerm;62630;55.874;37.516;2022-09-21T08:14:41;64.72;52.78;74.02;;
74260;Laerm;62630;55.874;37.516;2022-09-21T08:17:07;62.87;52.30;73.12;;
74260;Laerm;62630;55.874;37.516;2022-09-21T08:19:33;66.70;51.66;79.38;;
74260;Laerm;62630;55.874;37.516;2022-09-21T08:22:00;65.75;51.17;83.51;;
74260;Laerm;62630;55.874;37.516;2022-09-21T08:24:26;64.25;53.77;74.14;;
74260;Laerm;62630;55.874;37.516;2022-09-21T08:26:51;64.62;52.78;77.63;;
74260;Laerm;62630;55.874;37.516;2022-09-21T08:29:17;64.51;55.30;73.15;;
74260;Laerm;62630;55.874;37.516;2022-09-21T08:31:43;65.11;56.29;73.64;;
74260;Laerm;62630;55.874;37.516;2022-09-21T08:34:09;61.88;51.24;70.96;;
74260;Laerm;62630;55.874;37.516;2022-09-21T08:36:35;66.15;53.24;78.14;;
74260;Laerm;62630;55.874;37.516;2022-09-21T08:39:00;63.63;51.55;72.88;;
74260;Laerm;62630;55.874;37.516;2022-09-21T08:42:34;63.82;54.82;72.78;;
74260;Laerm;62630;55.874;37.516;2022-09-21T08:44:43;64.10;52.38;74.22;;
74260;Laerm;62630;55.874;37.516;2022-09-21T08:47:13;64.30;51.60;74.74;;
74260;Laerm;62630;55.874;37.516;2022-09-21T08:49:43;62.02;52.01;70.57;;
74260;Laerm;62630;55.874;37.516;2022-09-21T08:52:12;63.79;51.41;75.67;;
74260;Laerm;62630;55.874;37.516;2022-09-21T08:54:50;63.26;50.80;77.31;;
74260;Laerm;62630;55.874;37.516;2022-09-21T08:57:18;64.81;50.91;76.95;;
74260;Laerm;62630;55.874;37.516;2022-09-21T08:59:47;67.65;54.29;84.80;;
74260;Laerm;62630;55.874;37.516;2022-09-21T09:07:53;60.89;52.01;73.52;;
74260;Laerm;62630;55.874;37.516;2022-09-21T09:20:18;63.25;54.20;70.50;;
74260;Laerm;62630;55.874;37.516;2022-09-21T09:22:24;62.72;52.31;73.52;;
74260;Laerm;62630;55.874;37.516;2022-09-21T09:24:55;63.53;51.03;71.43;;
74260;Laerm;62630;55.874;37.516;2022-09-21T09:27:35;63.52;51.91;72.84;;
74260;Laerm;62630;55.874;37.516;2022-09-21T09:30:20;65.45;55.50;73.45;;
74260;Laerm;62630;55.874;37.516;2022-09-21T09:35:26;62.82;50.48;72.83;;
74260;Laerm;62630;55.874;37.516;2022-09-21T09:37:56;63.45;53.93;71.23;;
74260;Laerm;62630;55.874;37.516;2022-09-21T09:51:31;61.73;51.03;71.14;;
74260;Laerm;62630;55.874;37.516;2022-09-21T09:54:04;59.90;49.54;70.27;;
74260;Laerm;62630;55.874;37.516;2022-09-21T09:56:31;62.52;49.52;71.33;;
74260;Laerm;62630;55.874;37.516;2022-09-21T09:58:59;64.14;52.92;74.31;;
74260;Laerm;62630;55.874;37.516;2022-09-21T10:01:42;64.15;51.67;78.93;;
74260;Laerm;62630;55.874;37.516;2022-09-21T10:04:11;64.51;55.61;72.21;;
74260;Laerm;62630;55.874;37.516;2022-09-21T10:06:37;62.12;50.23;77.05;;
74260;Laerm;62630;55.874;37.516;2022-09-21T10:09:21;63.55;54.24;78.91;;
74260;Laerm;62630;55.874;37.516;2022-09-21T10:11:47;63.09;54.25;71.75;;
74260;Laerm;62630;55.874;37.516;2022-09-21T10:14:20;61.20;51.83;68.66;;
74260;Laerm;62630;55.874;37.516;2022-09-21T10:16:48;65.22;55.19;82.29;;
74260;Laerm;62630;55.874;37.516;2022-09-21T10:19:24;62.52;53.02;71.54;;
74260;Laerm;62630;55.874;37.516;2022-09-21T10:21:56;61.23;51.16;72.43;;
74260;Laerm;62630;55.874;37.516;2022-09-21T10:24:37;63.71;53.33;76.42;;
74260;Laerm;62630;55.874;37.516;2022-09-21T10:27:12;64.89;55.62;82.87;;
74260;Laerm;62630;55.874;37.516;2022-09-21T10:29:47;64.28;54.01;75.20;;
74260;Laerm;62630;55.874;37.516;2022-09-21T10:34:39;61.10;50.67;71.39;;
74260;Laerm;62630;55.874;37.516;2022-09-21T10:39:50;67.48;53.74;87.39;;
74260;Laerm;62630;55.874;37.516;2022-09-21T10:42:17;67.87;55.63;80.12;;
74260;Laerm;62630;55.874;37.516;2022-09-21T10:44:49;64.00;53.55;79.27;;
74260;Laerm;62630;55.874;37.516;2022-09-21T10:50:06;63.68;50.27;72.48;;
74260;Laerm;62630;55.874;37.516;2022-09-21T10:52:45;64.13;50.56;80.92;;
74260;Laerm;62630;55.874;37.516;2022-09-21T10:55:19;64.21;53.44;72.97;;
74260;Laerm;62630;55.874;37.516;2022-09-21T10:57:46;66.54;52.33;83.10;;
74260;Laerm;62630;55.874;37.516;2022-09-21T11:00:26;64.26;52.87;74.20;;
74260;Laerm;62630;55.874;37.516;2022-09-21T11:03:02;65.35;56.08;74.63;;
74260;Laerm;62630;55.874;37.516;2022-09-21T11:05:36;63.12;51.85;77.68;;
74260;Laerm;62630;55.874;37.516;2022-09-21T11:08:17;63.66;53.35;71.31;;
74260;Laerm;62630;55.874;37.516;2022-09-21T11:10:53;62.13;51.97;69.59;;
74260;Laerm;62630;55.874;37.516;2022-09-21T11:13:28;66.09;51.53;89.03;;
74260;Laerm;62630;55.874;37.516;2022-09-21T11:16:12;63.98;51.12;74.72;;
74260;Laerm;62630;55.874;37.516;2022-09-21T11:18:53;66.13;52.61;77.81;;
74260;Laerm;62630;55.874;37.516;2022-09-21T11:21:33;62.32;52.62;70.02;;
74260;Laerm;62630;55.874;37.516;2022-09-21T11:27:07;63.82;52.09;81.15;;
74260;Laerm;62630;55.874;37.516;2022-09-21T11:35:36;64.61;54.77;77.68;;
74260;Laerm;62630;55.874;37.516;2022-09-21T11:48:39;63.80;55.13;73.79;;
74260;Laerm;62630;55.874;37.516;2022-09-21T11:57:35;62.63;52.99;71.83;;
74260;Laerm;62630;55.874;37.516;2022-09-21T12:05:19;64.27;51.55;77.56;;
74260;Laerm;62630;55.874;37.516;2022-09-21T12:16:31;64.04;54.05;75.18;;
74260;Laerm;62630;55.874;37.516;2022-09-21T12:19:16;64.03;51.68;76.18;;
74260;Laerm;62630;55.874;37.516;2022-09-21T12:21:52;65.54;55.06;73.51;;
74260;Laerm;62630;55.874;37.516;2022-09-21T12:24:19;67.31;58.28;76.12;;
74260;Laerm;62630;55.874;37.516;2022-09-21T12:26:50;69.37;56.00;89.23;;
74260;Laerm;62630;55.874;37.516;2022-09-21T12:29:24;62.86;52.48;73.10;;
74260;Laerm;62630;55.874;37.516;2022-09-21T12:32:06;63.37;51.54;71.31;;
74260;Laerm;62630;55.874;37.516;2022-09-21T12:34:45;65.10;54.80;75.38;;
74260;Laerm;62630;55.874;37.516;2022-09-21T12:37:39;64.03;55.06;74.02;;
74260;Laerm;62630;55.874;37.516;2022-09-21T12:40:20;63.69;55.39;72.96;;
74260;Laerm;62630;55.874;37.516;2022-09-21T12:45:31;64.12;55.31;72.99;;
74260;Laerm;62630;55.874;37.516;2022-09-21T12:47:59;65.10;58.16;73.07;;
74260;Laerm;62630;55.874;37.516;2022-09-21T12:50:30;63.88;53.82;71.24;;
74260;Laerm;62630;55.874;37.516;2022-09-21T12:52:59;62.59;54.28;72.87;;
74260;Laerm;62630;55.874;37.516;2022-09-21T13:04:10;63.57;54.33;72.11;;
74260;Laerm;62630;55.874;37.516;2022-09-21T13:09:19;65.35;54.67;74.87;;
74260;Laerm;62630;55.874;37.516;2022-09-21T13:14:17;64.82;52.54;75.57;;
74260;Laerm;62630;55.874;37.516;2022-09-21T13:16:42;64.02;56.34;72.42;;
74260;Laerm;62630;55.874;37.516;2022-09-21T13:19:21;63.34;54.17;75.28;;
74260;Laerm;62630;55.874;37.516;2022-09-21T13:24:47;64.15;53.19;75.71;;
74260;Laerm;62630;55.874;37.516;2022-09-21T13:28:03;63.44;54.43;72.59;;
74260;Laerm;62630;55.874;37.516;2022-09-21T13:33:02;64.61;53.72;85.72;;
74260;Laerm;62630;55.874;37.516;2022-09-21T13:38:27;65.89;55.95;80.29;;
74260;Laerm;62630;55.874;37.516;2022-09-21T13:54:47;63.45;53.33;73.24;;
74260;Laerm;62630;55.874;37.516;2022-09-21T13:59:45;67.11;55.80;79.74;;
74260;Laerm;62630;55.874;37.516;2022-09-21T14:02:30;64.43;57.40;81.65;;
74260;Laerm;62630;55.874;37.516;2022-09-21T14:05:08;65.18;58.10;80.82;;
74260;Laerm;62630;55.874;37.516;2022-09-21T14:07:44;66.46;57.23;79.46;;
74260;Laerm;62630;55.874;37.516;2022-09-21T14:10:20;65.39;56.90;72.12;;
74260;Laerm;62630;55.874;37.516;2022-09-21T14:12:55;65.96;56.50;79.48;;
74260;Laerm;62630;55.874;37.516;2022-09-21T14:18:08;65.20;57.09;74.81;;
74260;Laerm;62630;55.874;37.516;2022-09-21T14:20:36;65.59;53.02;78.80;;
74260;Laerm;62630;55.874;37.516;2022-09-21T14:25:57;68.82;58.38;92.76;;
74260;Laerm;62630;55.874;37.516;2022-09-21T14:28:31;65.25;55.56;73.17;;
74260;Laerm;62630;55.874;37.516;2022-09-21T14:31:07;77.07;58.79;96.75;;
74260;Laerm;62630;55.874;37.516;2022-09-21T14:33:47;64.51;54.34;80.97;;
74260;Laerm;62630;55.874;37.516;2022-09-21T14:36:38;65.06;56.07;75.15;;
74260;Laerm;62630;55.874;37.516;2022-09-21T14:39:15;63.96;55.43;70.93;;
74260;Laerm;62630;55.874;37.516;2022-09-21T14:41:43;65.44;55.40;78.12;;
74260;Laerm;62630;55.874;37.516;2022-09-21T14:44:26;65.83;58.30;81.14;;
74260;Laerm;62630;55.874;37.516;2022-09-21T15:00:40;66.05;55.70;77.90;;
74260;Laerm;62630;55.874;37.516;2022-09-21T15:05:54;65.46;53.52;76.50;;
74260;Laerm;62630;55.874;37.516;2022-09-21T15:11:38;65.23;54.98;79.37;;
74260;Laerm;62630;55.874;37.516;2022-09-21T15:14:14;72.63;57.10;83.69;;
74260;Laerm;62630;55.874;37.516;2022-09-21T15:16:48;73.73;58.29;85.23;;
74260;Laerm;62630;55.874;37.516;2022-09-21T15:21:45;65.90;59.30;74.98;;
74260;Laerm;62630;55.874;37.516;2022-09-21T15:24:31;65.22;57.08;85.85;;
74260;Laerm;62630;55.874;37.516;2022-09-21T15:27:07;65.23;55.26;74.34;;
74260;Laerm;62630;55.874;37.516;2022-09-21T15:29:37;83.49;62.30;92.94;;
74260;Laerm;62630;55.874;37.516;2022-09-21T15:32:04;66.06;53.02;74.65;;
74260;Laerm;62630;55.874;37.516;2022-09-21T15:34:31;65.99;55.61;77.54;;
74260;Laerm;62630;55.874;37.516;2022-09-21T15:37:15;64.75;54.31;73.79;;
74260;Laerm;62630;55.874;37.516;2022-09-21T15:39:44;65.47;52.81;82.91;;
74260;Laerm;62630;55.874;37.516;2022-09-21T15:42:13;63.64;53.16;71.67;;
74260;Laerm;62630;55.874;37.516;2022-09-21T15:44:42;67.69;58.60;82.34;;
74260;Laerm;62630;55.874;37.516;2022-09-21T15:47:18;63.53;55.22;77.42;;
74260;Laerm;62630;55.874;37.516;2022-09-21T15:49:48;62.87;54.72;74.59;;
74260;Laerm;62630;55.874;37.516;2022-09-21T15:52:33;64.47;56.51;77.92;;
74260;Laerm;62630;55.874;37.516;2022-09-21T15:55:18;64.18;53.53;86.03;;
74260;Laerm;62630;55.874;37.516;2022-09-21T15:57:47;62.23;54.32;70.26;;
74260;Laerm;62630;55.874;37.516;2022-09-21T16:03:17;65.01;54.33;77.54;;
74260;Laerm;62630;55.874;37.516;2022-09-21T16:05:49;63.82;53.64;74.29;;
74260;Laerm;62630;55.874;37.516;2022-09-21T16:08:28;65.54;56.18;76.74;;
74260;Laerm;62630;55.874;37.516;2022-09-21T16:13:35;64.37;56.10;71.26;;
74260;Laerm;62630;55.874;37.516;2022-09-21T16:16:19;64.75;56.52;75.28;;
74260;Laerm;62630;55.874;37.516;2022-09-21T16:18:46;63.60;54.46;72.54;;
74260;Laerm;62630;55.874;37.516;2022-09-21T16:21:24;63.97;54.88;75.25;;
74260;Laerm;62630;55.874;37.516;2022-09-21T16:23:54;64.11;55.79;73.15;;
74260;Laerm;62630;55.874;37.516;2022-09-21T16:26:35;64.42;54.12;76.07;;
74260;Laerm;62630;55.874;37.516;2022-09-21T16:31:34;63.54;53.36;73.56;;
74260;Laerm;62630;55.874;37.516;2022-09-21T16:34:03;62.44;53.41;72.24;;
74260;Laerm;62630;55.874;37.516;2022-09-21T16:36:36;69.13;54.93;85.69;;
74260;Laerm;62630;55.874;37.516;2022-09-21T16:39:03;62.38;51.86;82.30;;
74260;Laerm;62630;55.874;37.516;2022-09-21T16:41:35;67.27;56.14;82.71;;
74260;Laerm;62630;55.874;37.516;2022-09-21T16:44:01;64.88;54.53;76.94;;
74260;Laerm;62630;55.874;37.516;2022-09-21T16:46:28;65.21;52.91;76.37;;
74260;Laerm;62630;55.874;37.516;2022-09-21T16:48:56;62.40;54.11;70.38;;
74260;Laerm;62630;55.874;37.516;2022-09-21T16:51:25;64.30;53.06;76.04;;
74260;Laerm;62630;55.874;37.516;2022-09-21T16:53:51;65.26;53.31;79.32;;
74260;Laerm;62630;55.874;37.516;2022-09-21T16:56:17;63.68;53.38;71.64;;
74260;Laerm;62630;55.874;37.516;2022-09-21T16:58:43;62.96;54.01;74.80;;
74260;Laerm;62630;55.874;37.516;2022-09-21T17:01:15;65.29;56.41;81.62;;
74260;Laerm;62630;55.874;37.516;2022-09-21T17:03:45;63.78;53.06;71.52;;
74260;Laerm;62630;55.874;37.516;2022-09-21T17:06:20;63.40;55.09;74.88;;